createdAt,value
2023-01-31T00:01:43.171Z,92.00
2023-01-31T00:05:29.005Z,92.20
2023-01-31T00:09:14.795Z,92.40
2023-01-31T00:12:57.394Z,92.50
2023-01-31T00:16:39.893Z,92.50
2023-01-31T00:20:24.606Z,92.60
2023-01-31T00:24:06.505Z,92.70
2023-01-31T00:27:48.259Z,93.00
2023-01-31T00:31:34.818Z,92.70
2023-01-31T00:35:16.698Z,92.70
2023-01-31T00:39:09.279Z,92.80
2023-01-31T00:42:51.132Z,92.90
2023-01-31T00:46:35.838Z,92.90
2023-01-31T00:50:18.323Z,92.90
2023-01-31T00:54:00.118Z,92.80
2023-01-31T00:57:41.864Z,92.80
2023-01-31T01:01:29.285Z,93.20
2023-01-31T01:05:12.005Z,92.90
2023-01-31T01:08:55.306Z,93.00
2023-01-31T01:12:40.419Z,93.10
2023-01-31T01:16:24.710Z,93.30
2023-01-31T01:20:08.594Z,93.40
2023-01-31T01:23:50.852Z,93.50
2023-01-31T01:27:32.742Z,93.50
2023-01-31T01:31:16.455Z,93.50
2023-01-31T01:34:58.286Z,93.40
2023-01-31T01:38:43.822Z,93.40
2023-01-31T01:42:27.614Z,93.40
2023-01-31T01:46:13.679Z,93.40
2023-01-31T01:50:03.755Z,93.50
2023-01-31T01:53:48.472Z,93.60
2023-01-31T01:57:36.292Z,93.70
2023-01-31T02:01:19.113Z,93.70
2023-01-31T02:05:01.115Z,93.60
2023-01-31T02:08:43.678Z,93.40
2023-01-31T02:12:26.167Z,93.30
2023-01-31T02:16:08.352Z,93.20
2023-01-31T02:20:11.327Z,93.10
2023-01-31T02:24:11.159Z,93.10
2023-01-31T02:28:12.446Z,93.20
2023-01-31T02:32:15.129Z,93.20
2023-01-31T02:36:14.888Z,93.30
2023-01-31T02:40:27.596Z,93.40
2023-01-31T02:44:30.921Z,93.40
2023-01-31T02:48:18.944Z,93.30
2023-01-31T02:52:35.007Z,93.10
2023-01-31T02:56:29.879Z,93.10
2023-01-31T03:00:13.792Z,93.00
2023-01-31T03:04:08.682Z,93.10
2023-01-31T03:07:56.235Z,93.40
2023-01-31T03:12:25.788Z,93.70
2023-01-31T03:16:39.807Z,93.70
2023-01-31T03:20:36.329Z,93.30
2023-01-31T03:24:20.284Z,93.30
2023-01-31T03:28:06.453Z,92.60
2023-01-31T03:31:58.644Z,92.50
2023-01-31T03:35:42.927Z,92.50
2023-01-31T03:39:38.841Z,92.40
2023-01-31T03:43:37.728Z,92.90
2023-01-31T03:47:25.890Z,93.10
2023-01-31T03:51:13.090Z,93.10
2023-01-31T03:55:01.904Z,93.20
2023-01-31T03:58:50.804Z,93.40
2023-01-31T04:02:36.219Z,93.40
2023-01-31T04:06:18.074Z,93.30
2023-01-31T04:09:59.814Z,92.90
2023-01-31T04:13:42.529Z,92.70
2023-01-31T04:17:24.251Z,92.60
2023-01-31T04:21:06.171Z,92.50
2023-01-31T04:24:47.868Z,92.60
2023-01-31T04:28:29.669Z,92.70
2023-01-31T04:32:11.850Z,93.30
2023-01-31T04:35:53.616Z,93.10
2023-01-31T04:39:35.311Z,93.30
2023-01-31T04:43:17.690Z,93.30
2023-01-31T04:46:59.528Z,93.30
2023-01-31T04:50:41.379Z,93.10
2023-01-31T04:54:23.080Z,93.00
2023-01-31T04:58:06.786Z,93.00
2023-01-31T05:01:49.141Z,93.00
2023-01-31T05:05:33.865Z,93.00
2023-01-31T05:09:17.998Z,93.10
2023-01-31T05:12:59.772Z,93.20
2023-01-31T05:16:41.571Z,93.50
2023-01-31T05:20:23.343Z,94.00
2023-01-31T05:24:05.304Z,94.30
2023-01-31T05:27:47.041Z,94.40
2023-01-31T05:31:29.028Z,94.60
2023-01-31T05:35:10.853Z,94.70
2023-01-31T05:38:52.587Z,94.80
2023-01-31T05:42:34.339Z,94.80
2023-01-31T05:46:16.068Z,94.70
2023-01-31T05:49:57.868Z,94.70
2023-01-31T05:53:39.574Z,94.80
2023-01-31T05:57:21.451Z,94.70
2023-01-31T06:01:03.255Z,94.90
2023-01-31T06:04:45.022Z,95.00
2023-01-31T06:08:26.735Z,95.00
2023-01-31T06:12:14.522Z,95.10
2023-01-31T06:15:56.318Z,95.30
2023-01-31T06:19:38.383Z,95.30
2023-01-31T06:23:20.341Z,95.50
2023-01-31T06:27:02.084Z,95.60
2023-01-31T06:30:44.261Z,95.70
2023-01-31T06:34:26.139Z,95.70
2023-01-31T06:38:08.768Z,95.80
2023-01-31T06:41:50.550Z,95.90
2023-01-31T06:45:33.021Z,95.90
2023-01-31T06:49:14.877Z,95.90
2023-01-31T06:52:56.804Z,95.90
2023-01-31T06:56:38.679Z,95.80
2023-01-31T07:00:20.667Z,95.60
2023-01-31T07:04:02.501Z,95.30
2023-01-31T07:07:44.374Z,95.10
2023-01-31T07:11:26.116Z,95.10
2023-01-31T07:15:09.002Z,95.00
2023-01-31T07:18:53.378Z,95.00
2023-01-31T07:22:35.117Z,95.20
2023-01-31T07:26:16.935Z,95.40
2023-01-31T07:29:58.840Z,95.60
2023-01-31T07:33:41.214Z,95.80
2023-01-31T07:37:22.903Z,96.00
2023-01-31T07:41:05.034Z,96.10
2023-01-31T07:44:46.904Z,96.30
2023-01-31T07:48:28.619Z,96.30
2023-01-31T07:52:10.341Z,96.30
2023-01-31T07:55:52.060Z,96.30
2023-01-31T07:59:33.960Z,96.70
2023-01-31T08:03:36.277Z,96.30
2023-01-31T08:07:18.011Z,96.60
2023-01-31T08:10:59.785Z,96.20
2023-01-31T08:14:41.569Z,96.10
2023-01-31T08:18:23.334Z,96.10
2023-01-31T08:22:05.708Z,96.30
2023-01-31T08:25:47.414Z,96.40
2023-01-31T08:29:29.515Z,96.50
2023-01-31T08:33:11.939Z,96.60
2023-01-31T08:36:53.780Z,96.70
2023-01-31T08:40:35.484Z,97.00
2023-01-31T08:44:17.219Z,96.80
2023-01-31T08:48:00.255Z,96.80
2023-01-31T08:51:42.707Z,97.00
2023-01-31T08:55:25.331Z,97.10
2023-01-31T08:59:07.224Z,97.20
2023-01-31T09:02:53.362Z,97.20
2023-01-31T09:06:35.243Z,97.30
2023-01-31T09:10:18.816Z,97.20
2023-01-31T09:14:00.559Z,97.20
2023-01-31T09:17:43.559Z,97.20
2023-01-31T09:21:25.986Z,97.20
2023-01-31T09:25:09.054Z,97.20
2023-01-31T09:28:51.141Z,97.10
2023-01-31T09:32:33.436Z,97.20
2023-01-31T09:36:18.923Z,97.10
2023-01-31T09:40:00.951Z,97.20
2023-01-31T09:43:47.948Z,97.20
2023-01-31T09:47:36.908Z,97.30
2023-01-31T09:51:19.632Z,97.40
2023-01-31T09:55:01.671Z,97.30
2023-01-31T09:59:02.017Z,97.50
2023-01-31T10:03:06.265Z,98.40
2023-01-31T10:06:58.702Z,98.40
2023-01-31T10:10:46.985Z,98.10
2023-01-31T10:14:41.243Z,98.10
2023-01-31T10:18:34.854Z,98.40
2023-01-31T10:22:19.740Z,98.60
2023-01-31T10:26:05.260Z,98.80
2023-01-31T10:30:00.783Z,98.10
2023-01-31T10:34:09.411Z,98.80
2023-01-31T10:37:57.570Z,98.70
2023-01-31T10:41:58.025Z,98.40
2023-01-31T10:45:40.630Z,99.00
2023-01-31T10:49:24.565Z,98.20
2023-01-31T10:53:17.710Z,98.30
2023-01-31T10:57:00.280Z,98.60
2023-01-31T11:00:42.373Z,98.30
2023-01-31T11:04:29.458Z,98.30
2023-01-31T11:08:24.994Z,98.10
2023-01-31T11:12:08.294Z,98.10
2023-01-31T11:15:52.414Z,97.90
2023-01-31T11:19:40.849Z,98.10
2023-01-31T11:23:26.077Z,97.80
2023-01-31T11:27:12.352Z,97.70
2023-01-31T11:30:55.480Z,97.70
2023-01-31T11:34:37.709Z,97.60
2023-01-31T11:38:22.829Z,97.50
2023-01-31T11:42:15.873Z,97.40
2023-01-31T11:46:02.614Z,97.10
2023-01-31T11:49:50.606Z,97.10
2023-01-31T11:53:39.291Z,96.90
2023-01-31T11:57:27.041Z,96.70
2023-01-31T12:01:15.160Z,96.50
2023-01-31T12:04:57.749Z,96.40
2023-01-31T12:08:43.429Z,96.50
2023-01-31T12:12:33.825Z,96.60
2023-01-31T12:16:22.961Z,96.60
2023-01-31T12:20:27.130Z,96.50
2023-01-31T12:24:15.560Z,96.50
2023-01-31T12:28:06.984Z,96.50
2023-01-31T12:32:13.482Z,96.50
2023-01-31T12:36:04.119Z,96.70
2023-01-31T12:40:25.577Z,96.70
2023-01-31T12:44:26.345Z,96.20
2023-01-31T12:48:20.037Z,95.70
2023-01-31T12:52:46.498Z,95.70
2023-01-31T12:56:42.533Z,94.70
2023-01-31T13:00:48.068Z,94.70
2023-01-31T13:04:59.189Z,94.80
2023-01-31T13:08:57.055Z,94.50
2023-01-31T13:12:47.903Z,95.10
2023-01-31T13:16:35.512Z,95.10
2023-01-31T13:20:31.842Z,95.10
2023-01-31T13:24:19.346Z,94.20
2023-01-31T13:28:12.817Z,94.70
2023-01-31T13:32:00.950Z,95.00
2023-01-31T13:35:45.135Z,94.20
2023-01-31T13:39:33.763Z,94.70
2023-01-31T13:43:16.702Z,94.40
2023-01-31T13:47:14.551Z,94.50
2023-01-31T13:51:03.023Z,94.20
2023-01-31T13:54:52.882Z,94.30
2023-01-31T13:58:36.661Z,94.30
2023-01-31T14:02:20.000Z,94.40
2023-01-31T14:06:02.570Z,94.40
2023-01-31T14:09:47.140Z,93.90
2023-01-31T14:13:39.298Z,94.10
2023-01-31T14:17:26.824Z,93.80
2023-01-31T14:21:30.387Z,93.90
2023-01-31T14:25:15.793Z,93.70
2023-01-31T14:28:57.683Z,94.30
2023-01-31T14:33:11.160Z,94.50
2023-01-31T14:37:17.290Z,93.30
2023-01-31T14:41:33.002Z,93.90
2023-01-31T14:45:41.604Z,93.40
2023-01-31T14:49:38.589Z,93.10
2023-01-31T14:54:04.225Z,93.00
2023-01-31T14:57:49.685Z,92.00
2023-01-31T15:01:38.312Z,93.10
2023-01-31T15:05:41.503Z,92.70
2023-01-31T15:09:24.705Z,92.00
2023-01-31T15:13:32.593Z,93.10
2023-01-31T15:17:35.547Z,92.00
2023-01-31T15:21:24.207Z,91.70
2023-01-31T15:25:20.897Z,92.40
2023-01-31T15:29:03.649Z,92.30
2023-01-31T15:33:00.443Z,92.60
2023-01-31T15:36:48.743Z,91.20
2023-01-31T15:40:31.118Z,91.90
2023-01-31T15:44:20.385Z,92.20
2023-01-31T15:48:09.021Z,91.10
2023-01-31T15:52:23.137Z,91.60
2023-01-31T15:56:09.350Z,90.50
2023-01-31T15:59:51.655Z,91.20
2023-01-31T16:03:39.266Z,91.50
2023-01-31T16:07:23.887Z,91.00
2023-01-31T16:11:08.148Z,90.80
2023-01-31T16:14:51.211Z,91.10
2023-01-31T16:18:35.780Z,91.00
2023-01-31T16:22:29.747Z,90.80
2023-01-31T16:26:25.132Z,90.10
2023-01-31T16:30:07.712Z,89.90
2023-01-31T16:33:53.386Z,90.70
2023-01-31T16:37:38.056Z,90.30
2023-01-31T16:41:37.870Z,90.40
2023-01-31T16:45:31.443Z,90.20
2023-01-31T16:49:26.955Z,89.90
2023-01-31T16:53:30.484Z,90.20
2023-01-31T16:57:38.096Z,89.90
2023-01-31T17:01:25.125Z,90.00
2023-01-31T17:05:22.501Z,90.20
2023-01-31T17:09:07.538Z,90.00
2023-01-31T17:12:51.007Z,90.20
2023-01-31T17:16:32.730Z,90.20
2023-01-31T17:20:19.300Z,90.30
2023-01-31T17:24:01.572Z,90.00
2023-01-31T17:27:43.578Z,90.10
2023-01-31T17:31:29.369Z,90.20
2023-01-31T17:35:18.028Z,90.20
2023-01-31T17:38:59.798Z,89.90
2023-01-31T17:42:41.679Z,90.10
2023-01-31T17:46:23.648Z,90.20
2023-01-31T17:50:05.938Z,90.20
2023-01-31T17:53:50.249Z,90.20
2023-01-31T17:57:32.485Z,90.40
2023-01-31T18:01:14.635Z,90.10
2023-01-31T18:04:56.383Z,90.20
2023-01-31T18:08:38.592Z,90.10
2023-01-31T18:12:21.382Z,90.10
2023-01-31T18:16:09.591Z,90.10
2023-01-31T18:19:51.447Z,89.60
2023-01-31T18:23:33.137Z,89.90
2023-01-31T18:27:15.173Z,90.00
2023-01-31T18:31:02.786Z,90.00
2023-01-31T18:34:44.899Z,89.30
2023-01-31T18:38:28.582Z,89.70
2023-01-31T18:42:10.458Z,89.70
2023-01-31T18:45:52.261Z,90.00
2023-01-31T18:49:33.962Z,89.70
2023-01-31T18:53:15.778Z,89.60
2023-01-31T18:56:57.497Z,89.70
2023-01-31T19:00:39.225Z,89.50
2023-01-31T19:04:21.355Z,89.50
2023-01-31T19:08:03.056Z,89.60
2023-01-31T19:11:45.230Z,89.50
2023-01-31T19:15:27.135Z,89.50
2023-01-31T19:19:10.015Z,89.70
2023-01-31T19:22:52.351Z,90.00
2023-01-31T19:26:35.169Z,90.20
2023-01-31T19:30:17.002Z,90.30
2023-01-31T19:34:04.233Z,90.40
2023-01-31T19:37:46.074Z,90.60
2023-01-31T19:41:29.018Z,90.80
2023-01-31T19:45:11.567Z,91.00
2023-01-31T19:49:02.045Z,91.30
2023-01-31T19:52:43.863Z,91.30
2023-01-31T19:56:26.251Z,91.60
2023-01-31T20:00:10.860Z,91.80
2023-01-31T20:03:54.313Z,92.10
2023-01-31T20:07:37.670Z,92.30
2023-01-31T20:11:20.183Z,92.80
2023-01-31T20:15:02.042Z,92.70
2023-01-31T20:18:43.776Z,93.00
2023-01-31T20:22:25.473Z,93.20
2023-01-31T20:26:07.361Z,93.20
2023-01-31T20:29:49.050Z,93.00
2023-01-31T20:33:31.051Z,92.80
2023-01-31T20:37:12.887Z,92.50
2023-01-31T20:40:55.458Z,92.30
2023-01-31T20:48:25.196Z,92.00
2023-01-31T20:52:07.073Z,92.00
2023-01-31T20:56:00.817Z,92.30
2023-01-31T20:59:42.862Z,91.80
2023-01-31T21:03:24.944Z,91.90
2023-01-31T21:07:06.914Z,91.80
2023-01-31T21:10:53.535Z,91.80
2023-01-31T21:14:35.307Z,91.80
2023-01-31T21:18:17.428Z,91.80
2023-01-31T21:21:59.169Z,91.80
2023-01-31T21:25:40.867Z,91.70
2023-01-31T21:29:22.722Z,91.70
2023-01-31T21:33:04.943Z,91.50
2023-01-31T21:36:46.786Z,91.50
2023-01-31T21:40:28.649Z,91.50
2023-01-31T21:44:10.516Z,92.10
2023-01-31T21:48:10.969Z,92.10
2023-01-31T21:51:53.426Z,92.10
2023-01-31T21:55:35.133Z,92.10
2023-01-31T21:59:16.827Z,92.30
2023-01-31T22:02:58.644Z,92.50
2023-01-31T22:06:42.058Z,92.80
2023-01-31T22:10:23.897Z,93.20
2023-01-31T22:14:08.384Z,93.10
2023-01-31T22:17:50.118Z,93.20
2023-01-31T22:21:34.661Z,93.00
2023-01-31T22:25:16.496Z,92.90
2023-01-31T22:29:00.941Z,92.60
2023-01-31T22:32:42.672Z,92.80
2023-01-31T22:36:24.798Z,93.10
2023-01-31T22:40:06.966Z,93.40
2023-01-31T22:43:51.652Z,93.50
2023-01-31T22:47:33.456Z,93.40
2023-01-31T22:51:22.113Z,93.30
2023-01-31T22:55:04.194Z,93.20
2023-01-31T22:58:46.860Z,93.00
2023-01-31T23:02:28.603Z,92.70
2023-01-31T23:06:11.240Z,92.50
2023-01-31T23:09:54.500Z,92.30
2023-01-31T23:13:36.780Z,92.20
2023-01-31T23:17:36.907Z,92.60
2023-01-31T23:21:19.382Z,92.40
2023-01-31T23:25:01.226Z,92.00
2023-01-31T23:28:43.080Z,92.00
2023-01-31T23:32:25.056Z,92.20
2023-01-31T23:36:07.104Z,92.40
2023-01-31T23:39:49.175Z,92.60
2023-01-31T23:43:30.916Z,92.80
2023-01-31T23:47:12.656Z,92.90
2023-01-31T23:51:01.570Z,92.90
2023-01-31T23:54:43.550Z,92.90
2023-01-31T23:58:25.407Z,93.00
